This is the latest recevied weather packets stored in our database for station/object ON1TG-13. If no packets are shown the sender has not sent any weather packets the latest 1 day(s).
| Time | Temp. | Humidity | Pressure | Rain* | Wind** | Luminosity | Snow |
|---|---|---|---|---|---|---|---|
| 1836274752 | 21.67° C | 10% | - | - | 1.34 m/s, 224° | - | - |
| 1836274545 | 22.22° C | 10% | - | - | 0.45 m/s, 269° | - | - |
| 1836274416 | 21.67° C | 10% | - | - | 0.89 m/s, 226° | - | - |
| 1836274338 | 22.22° C | 10% | - | - | 0.89 m/s, 252° | - | - |
| 1836274209 | 21.67° C | 10% | - | - | 1.34 m/s, 211° | - | - |
| 1836274131 | 21.67° C | 10% | - | - | 2.24 m/s, 315° | - | - |
| 1778032173 | 18.89° C | 21% | - | - | 4.92 m/s, 7° | - | - |
| 1778031290 | 18.89° C | 21% | - | - | 4.47 m/s, 13° | - | - |
| 1778031237 | 18.89° C | 21% | - | - | 4.47 m/s, 13° | - | - |
| 1778030281 | 18.33° C | 21% | - | - | 6.71 m/s, 8° | - | - |
| 1778029340 | 18.89° C | 21% | - | - | 4.92 m/s, 8° | - | - |
| 1778028402 | 18.33° C | 21% | - | - | 6.26 m/s, 10° | - | - |
| 1778027463 | 18.33° C | 21% | - | - | 6.71 m/s, 10° | - | - |
| 1778026526 | 17.78° C | 21% | - | - | 5.81 m/s, 12° | - | - |
| 1778025592 | 18.33° C | 21% | - | - | 4.92 m/s, 19° | - | - |
| 1778023727 | 18.89° C | 21% | - | - | 5.81 m/s, 19° | - | - |
| 1778022797 | 18.89° C | 21% | - | - | 4.92 m/s, 15° | - | - |
| 1778021878 | 18.33° C | 21% | - | - | 6.26 m/s, 21° | - | - |
| 1778020937 | 18.89° C | 21% | - | - | 5.81 m/s, 15° | - | - |
| 1778019998 | 18.89° C | 21% | - | - | 6.71 m/s, 17° | - | - |
| 1778019059 | 18.89° C | 21% | - | - | 5.36 m/s, 16° | - | - |
| 1778018131 | 18.33° C | 21% | - | - | 6.71 m/s, 15° | - | - |
| 1778017209 | 18.89° C | 21% | - | - | 5.81 m/s, 24° | - | - |
| 1778016284 | 19.44° C | 21% | - | - | 5.36 m/s, 10° | - | - |
| 1778015364 | 19.44° C | 21% | - | - | 4.92 m/s, 18° | - | - |
* Rain since midnight (hover to see other rain measurements)
** Current wind speed in m/s (hover to see current wind gust speed)